createdAt,value
2019-03-15T00:00:45.723Z,62.45
2019-03-15T00:04:52.932Z,62.42
2019-03-15T00:08:59.169Z,62.43
2019-03-15T00:13:04.717Z,62.84
2019-03-15T00:17:09.906Z,62.44
2019-03-15T00:21:14.730Z,62.84
2019-03-15T00:25:19.001Z,62.79
2019-03-15T00:29:23.221Z,63.46
2019-03-15T00:33:28.440Z,63.05
2019-03-15T00:37:36.488Z,63.39
2019-03-15T00:41:41.929Z,63.03
2019-03-15T00:45:46.148Z,63.17
2019-03-15T00:49:52.878Z,63.71
2019-03-15T00:53:57.842Z,63.56
2019-03-15T00:58:02.608Z,63.60
2019-03-15T01:02:07.150Z,63.58
2019-03-15T01:06:13.309Z,63.63
2019-03-15T01:10:18.671Z,63.77
2019-03-15T01:14:22.918Z,63.41
2019-03-15T01:18:27.720Z,63.87
2019-03-15T01:22:33.800Z,63.89
2019-03-15T01:26:40.342Z,63.99
2019-03-15T01:30:46.870Z,63.57
2019-03-15T01:34:53.671Z,63.86
2019-03-15T01:38:58.357Z,63.62
2019-03-15T01:43:03.147Z,64.05
2019-03-15T01:47:09.810Z,63.99
2019-03-15T01:51:15.821Z,64.07
2019-03-15T01:55:23.764Z,63.75
2019-03-15T01:59:30.078Z,63.59
2019-03-15T02:03:34.546Z,63.35
2019-03-15T02:07:38.797Z,63.54
2019-03-15T02:11:42.975Z,63.16
2019-03-15T02:15:47.223Z,63.61
2019-03-15T02:19:51.459Z,63.06
2019-03-15T02:23:55.726Z,63.15
2019-03-15T02:28:00.255Z,62.98
2019-03-15T02:32:04.449Z,63.11
2019-03-15T02:36:08.661Z,62.55
2019-03-15T02:40:13.187Z,62.27
2019-03-15T02:44:17.568Z,62.22
2019-03-15T02:48:21.976Z,62.14
2019-03-15T02:52:26.613Z,61.97
2019-03-15T02:56:30.885Z,62.01
2019-03-15T03:00:35.268Z,61.85
2019-03-15T03:04:40.929Z,61.84
2019-03-15T03:08:46.445Z,61.92
2019-03-15T03:12:51.366Z,61.48
2019-03-15T03:16:55.857Z,61.08
2019-03-15T03:21:03.330Z,60.98
2019-03-15T03:25:07.682Z,60.84
2019-03-15T03:29:12.027Z,60.79
2019-03-15T03:33:16.235Z,60.87
2019-03-15T03:37:21.293Z,60.98
2019-03-15T03:41:25.815Z,61.57
2019-03-15T03:45:30.344Z,61.37
2019-03-15T03:49:34.576Z,61.50
2019-03-15T03:53:38.845Z,61.55
2019-03-15T03:57:43.253Z,61.59
2019-03-15T04:01:47.885Z,61.81
2019-03-15T04:05:52.488Z,61.81
2019-03-15T04:09:56.984Z,61.99
2019-03-15T04:14:01.172Z,61.72
2019-03-15T04:18:06.791Z,61.56
2019-03-15T04:22:11.075Z,61.34
2019-03-15T04:26:16.348Z,61.15
2019-03-15T04:30:20.668Z,61.12
2019-03-15T04:34:28.201Z,61.10
2019-03-15T04:38:31.555Z,61.10
2019-03-15T04:42:36.968Z,60.87
2019-03-15T04:46:41.187Z,60.86
2019-03-15T04:50:45.559Z,60.80
2019-03-15T04:54:49.721Z,60.99
2019-03-15T04:58:54.194Z,60.87
2019-03-15T05:02:58.401Z,61.04
2019-03-15T05:07:03.047Z,60.69
2019-03-15T05:11:09.778Z,60.63
2019-03-15T05:15:15.883Z,60.39
2019-03-15T05:19:22.380Z,60.42
2019-03-15T05:23:26.668Z,60.50
2019-03-15T05:27:30.877Z,60.71
2019-03-15T05:31:35.091Z,61.15
2019-03-15T05:35:40.496Z,61.31
2019-03-15T05:39:46.558Z,61.45
2019-03-15T05:43:53.165Z,61.52
2019-03-15T05:47:57.436Z,61.41
2019-03-15T05:52:04.066Z,61.26
2019-03-15T05:56:08.647Z,62.05
2019-03-15T06:00:13.798Z,60.59
2019-03-15T06:04:19.379Z,60.61
2019-03-15T06:08:23.589Z,60.36
2019-03-15T06:12:27.850Z,60.47
2019-03-15T06:16:33.310Z,60.04
2019-03-15T06:20:37.525Z,60.32
2019-03-15T06:24:41.823Z,60.79
2019-03-15T06:28:46.086Z,61.29
2019-03-15T06:32:50.246Z,61.70
2019-03-15T06:36:54.733Z,61.56
2019-03-15T06:40:59.003Z,62.40
2019-03-15T06:45:03.910Z,62.33
2019-03-15T06:49:08.536Z,62.27
2019-03-15T06:53:12.831Z,62.60
2019-03-15T06:57:17.302Z,62.28
2019-03-15T07:01:22.658Z,62.89
2019-03-15T07:05:27.849Z,62.83
2019-03-15T07:09:33.690Z,63.21
2019-03-15T07:13:38.435Z,63.46
2019-03-15T07:17:43.377Z,64.55
2019-03-15T07:21:49.739Z,64.50
2019-03-15T07:25:54.126Z,64.83
2019-03-15T07:30:01.869Z,65.05
2019-03-15T07:34:06.077Z,64.74
2019-03-15T07:38:10.293Z,64.42
2019-03-15T07:42:14.512Z,64.78
2019-03-15T07:46:18.736Z,64.00
2019-03-15T07:50:22.917Z,63.66
2019-03-15T07:54:37.419Z,63.34
2019-03-15T07:58:33.643Z,63.11
2019-03-15T08:02:40.014Z,62.58
2019-03-15T08:06:45.410Z,61.93
2019-03-15T08:10:51.200Z,60.18
2019-03-15T08:14:56.369Z,59.30
2019-03-15T08:19:04.743Z,59.67
2019-03-15T08:23:08.883Z,58.37
2019-03-15T08:27:16.093Z,58.51
2019-03-15T08:31:23.115Z,57.07
2019-03-15T08:35:25.857Z,57.14
2019-03-15T08:39:32.544Z,57.50
2019-03-15T08:43:37.242Z,55.96
2019-03-15T08:47:42.087Z,55.74
2019-03-15T08:51:47.033Z,55.38
2019-03-15T08:55:51.211Z,54.83
2019-03-15T08:59:57.701Z,54.45
2019-03-15T09:04:02.066Z,54.13
2019-03-15T09:08:06.528Z,53.36
2019-03-15T09:12:11.440Z,53.96
2019-03-15T09:16:17.445Z,53.01
2019-03-15T09:20:22.969Z,53.29
2019-03-15T09:24:27.189Z,52.50
2019-03-15T09:28:34.107Z,52.44
2019-03-15T09:32:40.053Z,52.54
2019-03-15T09:36:50.049Z,52.33
2019-03-15T09:40:52.503Z,53.28
2019-03-15T09:44:56.743Z,53.67
2019-03-15T09:49:04.422Z,54.11
2019-03-15T09:53:08.692Z,54.61
2019-03-15T09:57:13.615Z,54.19
2019-03-15T10:01:33.611Z,54.11
2019-03-15T10:05:23.768Z,53.42
2019-03-15T10:09:28.214Z,53.77
2019-03-15T10:13:32.386Z,53.54
2019-03-15T10:17:36.879Z,53.15
2019-03-15T10:21:41.197Z,52.13
2019-03-15T10:25:49.725Z,52.08
2019-03-15T10:29:51.980Z,52.26
2019-03-15T10:33:56.363Z,51.31
2019-03-15T10:38:01.293Z,50.18
2019-03-15T10:42:07.502Z,50.76
2019-03-15T10:46:12.042Z,49.96
2019-03-15T10:50:17.211Z,49.54
2019-03-15T10:54:21.522Z,50.69
2019-03-15T10:58:25.857Z,49.48
2019-03-15T11:02:31.872Z,49.48
2019-03-15T11:06:37.335Z,49.52
2019-03-15T11:10:41.549Z,49.72
2019-03-15T11:14:45.750Z,49.72
2019-03-15T11:18:50.140Z,50.07
2019-03-15T11:22:54.308Z,49.54
2019-03-15T11:26:58.571Z,50.15
2019-03-15T11:31:02.846Z,49.84
2019-03-15T11:35:07.904Z,49.68
2019-03-15T11:39:12.142Z,49.83
2019-03-15T11:43:16.533Z,49.83
2019-03-15T11:47:20.847Z,49.71
2019-03-15T11:51:25.059Z,49.38
2019-03-15T11:55:30.519Z,49.38
2019-03-15T11:59:36.384Z,49.70
2019-03-15T12:03:53.123Z,49.90
2019-03-15T12:07:52.374Z,49.96
2019-03-15T12:11:59.284Z,49.96
2019-03-15T12:16:03.556Z,50.08
2019-03-15T12:20:08.366Z,49.28
2019-03-15T12:24:17.377Z,49.28
2019-03-15T12:28:21.683Z,49.68
2019-03-15T12:32:31.913Z,49.59
2019-03-15T12:36:37.141Z,49.38
2019-03-15T12:40:41.630Z,48.69
2019-03-15T12:44:45.986Z,49.63
2019-03-15T12:48:53.775Z,49.80
2019-03-15T12:53:02.632Z,50.08
2019-03-15T12:57:08.581Z,50.14
2019-03-15T13:01:13.235Z,50.32
2019-03-15T13:05:18.372Z,50.22
2019-03-15T13:09:22.591Z,50.39
2019-03-15T13:13:26.790Z,49.86
2019-03-15T13:17:32.561Z,50.79
2019-03-15T13:21:36.740Z,50.79
2019-03-15T13:25:45.245Z,51.31
2019-03-15T13:29:50.443Z,51.25
2019-03-15T13:33:56.228Z,51.65
2019-03-15T13:38:01.465Z,51.90
2019-03-15T13:42:08.006Z,52.11
2019-03-15T13:46:12.644Z,52.11
2019-03-15T13:50:17.160Z,52.60
2019-03-15T13:54:21.491Z,52.67
2019-03-15T13:58:25.736Z,52.51
2019-03-15T14:02:41.297Z,52.74
2019-03-15T14:06:45.733Z,53.20
2019-03-15T14:10:50.034Z,53.71
2019-03-15T14:15:01.676Z,53.73
2019-03-15T14:19:07.004Z,54.00
2019-03-15T14:23:11.222Z,54.32
2019-03-15T14:27:15.562Z,54.43
2019-03-15T14:31:21.537Z,54.91
2019-03-15T14:35:25.774Z,55.34
2019-03-15T14:39:30.096Z,55.32
2019-03-15T14:43:34.357Z,56.36
2019-03-15T14:47:38.640Z,56.58
2019-03-15T14:51:45.813Z,55.69
2019-03-15T14:55:56.673Z,55.69
2019-03-15T15:00:04.943Z,55.80
2019-03-15T15:04:09.158Z,55.82
2019-03-15T15:08:16.620Z,55.82
2019-03-15T15:12:25.555Z,56.01
2019-03-15T15:16:32.991Z,56.18
2019-03-15T15:20:37.288Z,56.23
2019-03-15T15:24:43.951Z,56.44
2019-03-15T15:28:51.192Z,56.41
2019-03-15T15:32:55.750Z,56.35
2019-03-15T15:37:00.798Z,56.25
2019-03-15T15:41:05.353Z,56.25
2019-03-15T15:45:11.871Z,56.45
2019-03-15T15:49:16.069Z,56.63
2019-03-15T15:53:20.445Z,56.53
2019-03-15T15:57:25.675Z,56.43
2019-03-15T16:01:31.517Z,56.61
2019-03-15T16:05:35.756Z,56.88
2019-03-15T16:09:40.721Z,57.18
2019-03-15T16:13:46.641Z,56.94
2019-03-15T16:23:06.923Z,57.32
2019-03-15T16:27:12.201Z,57.63
2019-03-15T16:31:16.381Z,57.83
2019-03-15T16:35:21.296Z,58.04
2019-03-15T16:39:25.973Z,58.39
2019-03-15T16:43:31.496Z,58.74
2019-03-15T16:48:03.555Z,59.00
2019-03-15T16:52:08.163Z,59.42
2019-03-15T16:56:12.451Z,59.61
2019-03-15T17:00:19.360Z,59.96
2019-03-15T17:04:25.918Z,60.36
2019-03-15T17:08:31.479Z,61.16
2019-03-15T17:12:40.354Z,61.69
2019-03-15T17:16:44.623Z,61.91
2019-03-15T17:20:49.205Z,62.27
2019-03-15T17:24:53.429Z,62.81
2019-03-15T17:28:58.821Z,63.17
2019-03-15T17:33:15.214Z,63.23
2019-03-15T17:37:19.509Z,63.60
2019-03-15T17:41:24.280Z,64.00
2019-03-15T17:45:30.788Z,64.13
2019-03-15T17:49:37.600Z,64.83
2019-03-15T17:53:41.903Z,64.77
2019-03-15T17:57:48.046Z,65.65
2019-03-15T18:01:52.353Z,66.01
2019-03-15T18:05:56.609Z,66.25
2019-03-15T18:10:02.258Z,66.69
2019-03-15T18:14:06.484Z,67.42
2019-03-15T18:18:11.943Z,67.50
2019-03-15T18:22:17.152Z,68.58
2019-03-15T18:26:21.330Z,68.19
2019-03-15T18:30:25.533Z,68.71
2019-03-15T18:34:29.759Z,69.45
2019-03-15T18:38:35.985Z,69.39
2019-03-15T18:42:41.030Z,69.69
2019-03-15T18:46:46.008Z,70.69
2019-03-15T18:50:50.360Z,70.43
2019-03-15T18:54:54.656Z,70.40
2019-03-15T18:59:04.243Z,70.63
2019-03-15T19:03:09.808Z,70.58
2019-03-15T19:07:14.142Z,71.20
2019-03-15T19:11:18.761Z,71.42
2019-03-15T19:15:23.249Z,71.63
2019-03-15T19:19:27.477Z,72.00
2019-03-15T19:23:33.741Z,72.25
2019-03-15T19:27:38.059Z,72.20
2019-03-15T19:31:42.939Z,72.51
2019-03-15T19:35:47.138Z,72.27
2019-03-15T19:39:51.381Z,73.44
2019-03-15T19:43:55.831Z,72.59
2019-03-15T19:48:00.162Z,72.63
2019-03-15T19:52:04.386Z,72.89
2019-03-15T19:56:08.626Z,73.05
2019-03-15T20:00:14.490Z,72.98
2019-03-15T20:04:18.713Z,72.94
2019-03-15T20:08:23.111Z,72.83
2019-03-15T20:12:27.342Z,72.66
2019-03-15T20:16:32.221Z,72.60
2019-03-15T20:20:36.481Z,72.77
2019-03-15T20:24:40.706Z,72.14
2019-03-15T20:28:44.953Z,72.55
2019-03-15T20:32:49.159Z,72.22
2019-03-15T20:36:53.452Z,72.03
2019-03-15T20:40:57.681Z,72.40
2019-03-15T20:45:01.964Z,72.21
2019-03-15T20:49:06.202Z,71.84
2019-03-15T20:53:12.849Z,71.77
2019-03-15T20:57:16.341Z,71.74
2019-03-15T21:01:20.554Z,71.50
2019-03-15T21:05:24.722Z,71.37
2019-03-15T21:09:30.319Z,71.37
2019-03-15T21:13:34.681Z,71.14
2019-03-15T21:17:38.895Z,71.09
2019-03-15T21:21:43.853Z,70.89
2019-03-15T21:25:49.609Z,70.73
2019-03-15T21:29:54.355Z,70.89
2019-03-15T21:33:58.583Z,70.71
2019-03-15T21:38:04.504Z,70.69
2019-03-15T21:42:10.628Z,70.30
2019-03-15T21:46:14.947Z,70.55
2019-03-15T21:50:19.314Z,70.00
2019-03-15T21:54:24.113Z,69.57
2019-03-15T21:58:30.011Z,69.57
2019-03-15T22:02:36.142Z,69.31
2019-03-15T22:06:42.856Z,69.48
2019-03-15T22:10:47.979Z,69.48
2019-03-15T22:14:52.205Z,69.05
2019-03-15T22:18:57.703Z,68.91
2019-03-15T22:23:02.848Z,68.77
2019-03-15T22:27:07.194Z,68.79
2019-03-15T22:31:16.856Z,68.79
2019-03-15T22:35:17.433Z,68.21
2019-03-15T22:39:21.955Z,68.05
2019-03-15T22:43:26.237Z,67.74
2019-03-15T22:47:30.456Z,67.70
2019-03-15T22:51:34.652Z,67.56
2019-03-15T22:55:39.278Z,67.43
2019-03-15T22:59:43.519Z,67.40
2019-03-15T23:03:47.858Z,67.31
2019-03-15T23:07:52.134Z,66.97
2019-03-15T23:11:58.138Z,67.01
2019-03-15T23:16:05.213Z,66.76
2019-03-15T23:20:11.548Z,66.65
2019-03-15T23:24:16.803Z,66.32
2019-03-15T23:28:21.745Z,66.50
2019-03-15T23:32:26.479Z,66.24
2019-03-15T23:36:30.760Z,66.24
2019-03-15T23:40:34.969Z,66.11
2019-03-15T23:44:39.362Z,66.00
2019-03-15T23:48:44.361Z,65.91
2019-03-15T23:52:48.543Z,65.81
2019-03-15T23:56:52.837Z,65.71
